Time;durP1;ratioP1;P1;durP2;ratioP2;P2;SDS_P1;SDS_P2;PMS_P1;PMS_P2;Temp;Humidity;BMP_temperature;BMP_pressure;BME280_temperature;BME280_humidity;BME280_pressure;Samples;Min_cycle;Max_cycle;Signal;HPM_P1;HPM_P2
2023/07/01 00:00:57;;;;;;;13.90;3.20;;;;;;;;;;5029565;28;20085;-75
2023/07/01 00:03:23;;;;;;;6.85;2.72;;;;;;;;;;5033840;28;20101;-75
2023/07/01 00:05:49;;;;;;;8.43;2.70;;;;;;;;;;5030892;28;20013;-73
2023/07/01 00:08:15;;;;;;;8.40;2.80;;;;;;;;;;5031056;28;20032;-74
2023/07/01 00:10:41;;;;;;;6.80;2.67;;;;;;;;;;5031254;28;20041;-73
2023/07/01 00:13:07;;;;;;;5.68;2.20;;;;;;;;;;5030052;28;20083;-73
2023/07/01 00:15:34;;;;;;;7.93;2.58;;;;;;;;;;5031381;28;20029;-73
2023/07/01 00:18:00;;;;;;;8.63;2.65;;;;;;;;;;5031268;28;20029;-73
2023/07/01 00:20:26;;;;;;;7.90;2.38;;;;;;;;;;5031587;28;20025;-73
2023/07/01 00:22:53;;;;;;;5.80;2.25;;;;;;;;;;5030440;28;20029;-73
2023/07/01 00:25:19;;;;;;;7.85;2.45;;;;;;;;;;5030962;28;20014;-74
2023/07/01 00:27:45;;;;;;;8.43;2.22;;;;;;;;;;5031543;28;20025;-73
2023/07/01 00:30:11;;;;;;;7.18;2.00;;;;;;;;;;5031673;28;20033;-74
2023/07/01 00:32:37;;;;;;;7.78;2.30;;;;;;;;;;5030264;28;20029;-74
2023/07/01 00:35:03;;;;;;;6.47;2.00;;;;;;;;;;5030876;28;20033;-74
2023/07/01 00:37:30;;;;;;;7.85;2.20;;;;;;;;;;5030682;28;20602;-73
2023/07/01 00:39:56;;;;;;;4.78;2.08;;;;;;;;;;5030547;28;20360;-75
2023/07/01 00:42:22;;;;;;;6.85;2.13;;;;;;;;;;5030169;28;20135;-73
2023/07/01 00:44:48;;;;;;;8.05;2.10;;;;;;;;;;5030828;28;20029;-73
2023/07/01 00:47:14;;;;;;;6.43;2.13;;;;;;;;;;5030695;28;20026;-74
2023/07/01 00:49:40;;;;;;;7.63;1.90;;;;;;;;;;5030797;28;20040;-73
2023/07/01 00:52:07;;;;;;;7.57;1.80;;;;;;;;;;5029175;28;20033;-73
2023/07/01 00:54:34;;;;;;;6.95;2.35;;;;;;;;;;5030846;28;20104;-74
2023/07/01 00:57:03;;;;;;;7.53;2.30;;;;;;;;;;5030571;28;20515;-74
2023/07/01 00:59:29;;;;;;;10.27;2.60;;;;;;;;;;5031533;28;20117;-77
2023/07/01 01:01:56;;;;;;;7.15;2.15;;;;;;;;;;5029950;28;20476;-73
2023/07/01 01:04:35;;;;;;;7.82;2.17;;;;;;;;;;5030104;28;20022;-73
2023/07/01 01:07:03;;;;;;;7.63;2.13;;;;;;;;;;5033050;28;20079;-73
2023/07/01 01:09:29;;;;;;;11.07;2.45;;;;;;;;;;5034521;28;20029;-73
2023/07/01 01:11:57;;;;;;;7.82;2.28;;;;;;;;;;5033793;28;20440;-73
2023/07/01 01:14:24;;;;;;;6.60;2.10;;;;;;;;;;5034611;28;20367;-75
2023/07/01 01:16:50;;;;;;;8.93;2.00;;;;;;;;;;5034117;28;20124;-74
2023/07/01 01:19:25;;;;;;;7.28;1.90;;;;;;;;;;5034239;28;20100;-73
2023/07/01 01:21:54;;;;;;;4.53;2.00;;;;;;;;;;5033635;28;20537;-73
2023/07/01 01:24:21;;;;;;;9.25;2.20;;;;;;;;;;5034226;28;20040;-74
2023/07/01 01:26:48;;;;;;;13.20;2.67;;;;;;;;;;5034371;28;20656;-74
2023/07/01 01:29:14;;;;;;;7.03;2.17;;;;;;;;;;5034213;28;20029;-73
2023/07/01 01:31:40;;;;;;;8.77;2.30;;;;;;;;;;5032181;28;20025;-74
2023/07/01 01:34:06;;;;;;;5.38;2.28;;;;;;;;;;5031491;28;20029;-76
2023/07/01 01:36:42;;;;;;;9.50;2.42;;;;;;;;;;5034013;28;20028;-74
2023/07/01 01:39:08;;;;;;;9.57;2.55;;;;;;;;;;5034025;28;20025;-73
2023/07/01 01:41:44;;;;;;;7.70;2.10;;;;;;;;;;5033977;28;20379;-73
2023/07/01 01:44:14;;;;;;;10.38;2.47;;;;;;;;;;5033424;28;20131;-73
2023/07/01 01:46:40;;;;;;;8.48;2.20;;;;;;;;;;5033795;28;20022;-74
2023/07/01 01:49:08;;;;;;;7.28;2.60;;;;;;;;;;5033840;28;20033;-73
2023/07/01 01:51:36;;;;;;;7.78;2.05;;;;;;;;;;5033537;28;20032;-75
2023/07/01 01:54:03;;;;;;;6.15;2.47;;;;;;;;;;5033053;28;20033;-74
2023/07/01 01:56:31;;;;;;;6.38;2.60;;;;;;;;;;5033568;28;20379;-75
2023/07/01 01:58:57;;;;;;;9.20;2.65;;;;;;;;;;5034567;28;20364;-72
2023/07/01 02:01:23;;;;;;;10.23;2.38;;;;;;;;;;5035814;28;20032;-72
2023/07/01 02:03:49;;;;;;;8.57;2.50;;;;;;;;;;5034254;28;20021;-72
2023/07/01 02:06:15;;;;;;;9.18;2.33;;;;;;;;;;5034794;28;20052;-75
2023/07/01 02:08:41;;;;;;;9.07;2.45;;;;;;;;;;5032047;28;20034;-75
2023/07/01 02:11:07;;;;;;;7.00;2.30;;;;;;;;;;5034729;28;20055;-75
2023/07/01 02:13:33;;;;;;;6.15;2.10;;;;;;;;;;5033856;28;20042;-73
2023/07/01 02:15:59;;;;;;;10.73;2.40;;;;;;;;;;5034493;28;20030;-74
2023/07/01 02:18:25;;;;;;;7.90;2.20;;;;;;;;;;5034296;28;20112;-74
2023/07/01 02:20:51;;;;;;;7.22;2.45;;;;;;;;;;5032904;28;20502;-75
2023/07/01 02:23:17;;;;;;;8.50;2.03;;;;;;;;;;5033724;28;20033;-74
2023/07/01 02:25:43;;;;;;;5.68;2.08;;;;;;;;;;5034185;28;20026;-75
2023/07/01 02:28:09;;;;;;;8.50;2.47;;;;;;;;;;5034165;28;20033;-75
2023/07/01 02:30:35;;;;;;;5.57;2.28;;;;;;;;;;5034010;28;20021;-77
2023/07/01 02:33:02;;;;;;;9.68;2.00;;;;;;;;;;5033177;28;20037;-73
2023/07/01 02:35:29;;;;;;;6.85;2.45;;;;;;;;;;5033812;28;20022;-74
2023/07/01 02:37:55;;;;;;;5.90;1.90;;;;;;;;;;5032575;28;20036;-73
2023/07/01 02:40:21;;;;;;;10.73;2.30;;;;;;;;;;5034526;28;20106;-74
2023/07/01 02:42:47;;;;;;;6.57;2.50;;;;;;;;;;5033354;28;20033;-74
2023/07/01 02:45:13;;;;;;;11.65;1.90;;;;;;;;;;5033999;28;20030;-74
2023/07/01 02:47:39;;;;;;;7.82;2.15;;;;;;;;;;5033958;28;20034;-76
2023/07/01 02:50:05;;;;;;;12.00;2.40;;;;;;;;;;5033823;28;20036;-75
2023/07/01 02:52:32;;;;;;;6.40;2.13;;;;;;;;;;5032922;28;20478;-75
2023/07/01 02:54:58;;;;;;;12.13;2.70;;;;;;;;;;5033832;28;20025;-75
2023/07/01 02:57:24;;;;;;;4.13;1.83;;;;;;;;;;5033517;28;20391;-74
2023/07/01 02:59:50;;;;;;;9.50;2.35;;;;;;;;;;5033816;28;20026;-75
2023/07/01 03:02:16;;;;;;;8.20;2.47;;;;;;;;;;5032675;28;20338;-74
2023/07/01 03:04:42;;;;;;;9.35;2.50;;;;;;;;;;5033547;28;20032;-71
2023/07/01 03:07:08;;;;;;;7.70;2.58;;;;;;;;;;5033776;28;20467;-75
2023/07/01 03:09:34;;;;;;;6.93;1.90;;;;;;;;;;5033525;28;20116;-73
2023/07/01 03:12:00;;;;;;;6.53;2.40;;;;;;;;;;5032455;28;20058;-72
2023/07/01 03:14:27;;;;;;;12.85;2.90;;;;;;;;;;5033293;28;20053;-73
2023/07/01 03:16:53;;;;;;;10.73;2.88;;;;;;;;;;5032976;28;20436;-72
2023/07/01 03:19:19;;;;;;;6.95;2.28;;;;;;;;;;5032942;28;20064;-73
2023/07/01 03:21:46;;;;;;;11.38;2.45;;;;;;;;;;5032444;28;20017;-72
2023/07/01 03:24:12;;;;;;;9.77;2.45;;;;;;;;;;5032058;28;20384;-72
2023/07/01 03:26:38;;;;;;;7.78;2.38;;;;;;;;;;5032840;28;20025;-71
2023/07/01 03:29:04;;;;;;;7.50;2.75;;;;;;;;;;5032965;28;20022;-70
2023/07/01 03:31:30;;;;;;;7.68;2.30;;;;;;;;;;5032807;28;20018;-71
2023/07/01 03:33:56;;;;;;;5.93;2.30;;;;;;;;;;5032593;28;20419;-70
2023/07/01 03:36:22;;;;;;;6.97;2.40;;;;;;;;;;5033013;28;20018;-70
2023/07/01 03:38:48;;;;;;;7.68;2.92;;;;;;;;;;5032686;28;20108;-71
2023/07/01 03:41:14;;;;;;;9.60;2.65;;;;;;;;;;5032778;28;20021;-72
2023/07/01 03:43:40;;;;;;;10.38;2.88;;;;;;;;;;5032393;28;20083;-70
2023/07/01 03:46:06;;;;;;;12.93;2.75;;;;;;;;;;5032867;28;20025;-69
2023/07/01 03:48:32;;;;;;;9.32;2.75;;;;;;;;;;5032568;28;20602;-71
2023/07/01 03:50:58;;;;;;;6.40;2.58;;;;;;;;;;5032619;28;20029;-71
2023/07/01 03:53:24;;;;;;;10.43;3.03;;;;;;;;;;5032247;28;20025;-70
2023/07/01 03:55:50;;;;;;;10.98;2.60;;;;;;;;;;5032424;28;20480;-72
2023/07/01 03:58:21;;;;;;;7.60;2.75;;;;;;;;;;5032456;28;20036;-72
2023/07/01 04:00:48;;;;;;;9.43;2.65;;;;;;;;;;5032211;28;20439;-70
2023/07/01 04:03:14;;;;;;;9.23;3.05;;;;;;;;;;5032014;28;20036;-70
2023/07/01 04:05:40;;;;;;;10.68;2.53;;;;;;;;;;5032289;28;20479;-72
2023/07/01 04:08:06;;;;;;;10.68;3.00;;;;;;;;;;5030992;28;20056;-72
2023/07/01 04:10:32;;;;;;;10.20;2.92;;;;;;;;;;5030931;28;20038;-71
2023/07/01 04:13:00;;;;;;;12.48;2.70;;;;;;;;;;5030524;28;20079;-72
2023/07/01 04:15:27;;;;;;;10.02;2.67;;;;;;;;;;5030733;28;20018;-73
2023/07/01 04:17:54;;;;;;;12.43;2.90;;;;;;;;;;5031311;28;20051;-70
2023/07/01 04:20:20;;;;;;;7.53;2.80;;;;;;;;;;5031022;28;20524;-71
2023/07/01 04:22:46;;;;;;;9.20;2.92;;;;;;;;;;5029971;28;20395;-76
2023/07/01 04:25:12;;;;;;;6.82;2.95;;;;;;;;;;5031669;28;20100;-72
2023/07/01 04:27:40;;;;;;;7.63;3.05;;;;;;;;;;5031442;28;20138;-71
2023/07/01 04:30:07;;;;;;;13.50;3.33;;;;;;;;;;5030903;28;20025;-73
2023/07/01 04:32:34;;;;;;;7.15;2.40;;;;;;;;;;5030369;28;20379;-72
2023/07/01 04:35:00;;;;;;;9.73;3.13;;;;;;;;;;5030467;28;20025;-72
2023/07/01 04:37:26;;;;;;;12.02;3.20;;;;;;;;;;5030874;28;20025;-73
2023/07/01 04:39:52;;;;;;;8.73;2.97;;;;;;;;;;5030807;28;20025;-71
2023/07/01 04:42:18;;;;;;;10.55;3.22;;;;;;;;;;5029326;28;20021;-72
2023/07/01 04:44:44;;;;;;;9.50;3.00;;;;;;;;;;5031320;28;20064;-73
2023/07/01 04:47:10;;;;;;;7.85;3.40;;;;;;;;;;5030549;28;20021;-71
2023/07/01 04:49:36;;;;;;;8.88;3.20;;;;;;;;;;5030937;28;20472;-73
2023/07/01 04:52:02;;;;;;;10.90;3.17;;;;;;;;;;5029879;28;20079;-72
2023/07/01 04:54:28;;;;;;;10.43;2.80;;;;;;;;;;5030960;28;20030;-73
2023/07/01 04:56:54;;;;;;;8.13;2.95;;;;;;;;;;5031383;28;20079;-73
2023/07/01 04:59:20;;;;;;;8.07;3.15;;;;;;;;;;5030666;28;20026;-70
2023/07/01 05:01:46;;;;;;;10.05;2.60;;;;;;;;;;5029523;28;20433;-71
2023/07/01 05:04:12;;;;;;;8.00;3.20;;;;;;;;;;5030629;28;20026;-73
2023/07/01 05:06:38;;;;;;;11.02;2.92;;;;;;;;;;5030564;28;20155;-73
2023/07/01 05:09:05;;;;;;;10.75;2.97;;;;;;;;;;5031539;28;20395;-71
2023/07/01 05:11:31;;;;;;;6.72;3.08;;;;;;;;;;5031392;28;20155;-75
2023/07/01 05:13:57;;;;;;;10.82;3.50;;;;;;;;;;5031334;28;20064;-73
2023/07/01 05:16:23;;;;;;;10.00;3.17;;;;;;;;;;5034991;28;20115;-72
2023/07/01 05:18:49;;;;;;;7.63;3.20;;;;;;;;;;5031139;28;20032;-73
2023/07/01 05:21:15;;;;;;;8.13;3.15;;;;;;;;;;5032954;28;20422;-71
2023/07/01 05:23:41;;;;;;;12.38;3.10;;;;;;;;;;5033989;28;20022;-71
2023/07/01 05:26:07;;;;;;;13.68;3.28;;;;;;;;;;5032592;28;20029;-72
2023/07/01 05:28:33;;;;;;;7.70;2.92;;;;;;;;;;5031133;28;20036;-74
2023/07/01 05:30:59;;;;;;;11.63;3.75;;;;;;;;;;5031859;28;20038;-74
2023/07/01 05:33:25;;;;;;;17.60;3.83;;;;;;;;;;5039583;28;20032;-73
2023/07/01 05:35:51;;;;;;;7.90;3.15;;;;;;;;;;5031554;28;20033;-72
2023/07/01 05:38:17;;;;;;;11.45;3.10;;;;;;;;;;5031200;28;20104;-72
2023/07/01 05:40:43;;;;;;;10.43;3.72;;;;;;;;;;5033388;28;20040;-72
2023/07/01 05:43:09;;;;;;;10.93;4.32;;;;;;;;;;5036148;28;20037;-72
2023/07/01 05:45:35;;;;;;;12.10;4.03;;;;;;;;;;5029791;28;20021;-74
2023/07/01 05:48:01;;;;;;;12.20;4.65;;;;;;;;;;5032888;28;20037;-71
2023/07/01 05:50:27;;;;;;;9.77;3.78;;;;;;;;;;5038233;28;20112;-73
2023/07/01 05:52:53;;;;;;;12.32;4.30;;;;;;;;;;5034546;28;20036;-74
2023/07/01 05:55:19;;;;;;;11.65;4.03;;;;;;;;;;5039044;28;20030;-74
2023/07/01 05:57:46;;;;;;;16.48;4.28;;;;;;;;;;5043587;28;20110;-72
2023/07/01 06:00:13;;;;;;;10.27;4.22;;;;;;;;;;5040248;28;20076;-71
2023/07/01 06:02:40;;;;;;;9.38;4.20;;;;;;;;;;5035041;28;20386;-73
2023/07/01 06:05:07;;;;;;;8.75;4.07;;;;;;;;;;5036413;28;20111;-73
2023/07/01 06:07:33;;;;;;;12.25;4.28;;;;;;;;;;5035579;28;20025;-73
2023/07/01 06:09:59;;;;;;;9.50;4.30;;;;;;;;;;5037630;28;20037;-75
2023/07/01 06:12:25;;;;;;;12.38;4.80;;;;;;;;;;5037652;28;20030;-72
2023/07/01 06:14:51;;;;;;;10.50;4.82;;;;;;;;;;5042267;28;20236;-72
2023/07/01 06:17:16;;;;;;;12.65;4.57;;;;;;;;;;5044498;28;20076;-73
2023/07/01 06:19:42;;;;;;;8.68;4.13;;;;;;;;;;5038858;28;20022;-74
2023/07/01 06:22:08;;;;;;;11.98;4.68;;;;;;;;;;5043446;28;20026;-73
2023/07/01 06:24:34;;;;;;;12.25;4.82;;;;;;;;;;5039043;28;20095;-72
2023/07/01 06:27:00;;;;;;;11.10;4.85;;;;;;;;;;5044076;28;20041;-72
2023/07/01 06:29:27;;;;;;;12.07;4.60;;;;;;;;;;5044606;28;20402;-74
2023/07/01 06:31:53;;;;;;;11.18;5.20;;;;;;;;;;5055224;28;20045;-75
2023/07/01 06:34:19;;;;;;;20.13;5.53;;;;;;;;;;5035005;28;20025;-77
2023/07/01 06:36:45;;;;;;;11.68;5.22;;;;;;;;;;5035238;28;20499;-74
2023/07/01 06:39:12;;;;;;;14.00;4.90;;;;;;;;;;5036190;28;20029;-73
2023/07/01 06:41:38;;;;;;;11.65;5.30;;;;;;;;;;5034689;28;20088;-72
2023/07/01 06:44:04;;;;;;;12.25;5.07;;;;;;;;;;5034477;28;20068;-71
2023/07/01 06:46:30;;;;;;;14.40;5.38;;;;;;;;;;5035320;28;20057;-73
2023/07/01 06:48:56;;;;;;;13.13;5.20;;;;;;;;;;5033642;28;20430;-74
2023/07/01 06:51:22;;;;;;;16.83;5.03;;;;;;;;;;5033812;28;20071;-72
2023/07/01 06:53:48;;;;;;;15.95;5.90;;;;;;;;;;5033277;28;20030;-76
2023/07/01 06:56:14;;;;;;;11.48;4.80;;;;;;;;;;5034320;28;20112;-75
2023/07/01 06:58:40;;;;;;;19.17;5.20;;;;;;;;;;5033543;28;20022;-75
2023/07/01 07:01:06;;;;;;;10.68;5.10;;;;;;;;;;5034186;28;20208;-76
2023/07/01 07:03:33;;;;;;;15.55;4.90;;;;;;;;;;5032843;28;20058;-75
2023/07/01 07:05:59;;;;;;;13.32;4.78;;;;;;;;;;5033799;28;20113;-73
2023/07/01 07:08:25;;;;;;;17.90;5.72;;;;;;;;;;5033508;28;20021;-74
2023/07/01 07:10:51;;;;;;;12.07;4.35;;;;;;;;;;5033335;28;20490;-73
2023/07/01 07:13:17;;;;;;;12.63;4.90;;;;;;;;;;5033153;28;20037;-72
2023/07/01 07:15:44;;;;;;;17.98;4.95;;;;;;;;;;5033530;28;20025;-74
2023/07/01 07:18:10;;;;;;;11.60;4.55;;;;;;;;;;5033327;28;20037;-70
2023/07/01 07:20:38;;;;;;;12.70;5.35;;;;;;;;;;5033632;28;20025;-73
2023/07/01 07:23:08;;;;;;;11.45;4.90;;;;;;;;;;5033033;28;20502;-74
2023/07/01 07:25:34;;;;;;;11.52;4.97;;;;;;;;;;5034141;28;20485;-72
2023/07/01 07:28:00;;;;;;;12.38;4.10;;;;;;;;;;5037421;28;20025;-73
2023/07/01 07:30:26;;;;;;;11.95;4.80;;;;;;;;;;5034395;28;20029;-72
2023/07/01 07:32:52;;;;;;;9.45;4.03;;;;;;;;;;5031989;28;20083;-73
2023/07/01 07:35:19;;;;;;;11.32;4.63;;;;;;;;;;5033208;28;20030;-73
2023/07/01 07:37:45;;;;;;;10.60;4.40;;;;;;;;;;5033401;28;20022;-73
2023/07/01 07:40:11;;;;;;;16.77;4.55;;;;;;;;;;5035019;28;20545;-73
2023/07/01 07:42:37;;;;;;;14.98;7.18;;;;;;;;;;5032221;28;20030;-73
2023/07/01 07:45:06;;;;;;;15.55;7.85;;;;;;;;;;5034028;28;20506;-73
2023/07/01 07:47:32;;;;;;;12.55;4.55;;;;;;;;;;5033251;28;20029;-73
2023/07/01 07:49:58;;;;;;;10.13;5.18;;;;;;;;;;5033135;28;20321;-76
2023/07/01 07:52:24;;;;;;;8.90;4.22;;;;;;;;;;5032563;28;20104;-72
2023/07/01 07:54:50;;;;;;;11.63;5.35;;;;;;;;;;5032387;28;20108;-71
2023/07/01 07:57:16;;;;;;;10.90;4.88;;;;;;;;;;5032515;28;20116;-72
2023/07/01 07:59:42;;;;;;;10.18;4.90;;;;;;;;;;5032513;28;20033;-73
2023/07/01 08:02:08;;;;;;;8.98;4.68;;;;;;;;;;5031504;28;20025;-73
2023/07/01 08:04:35;;;;;;;12.77;5.63;;;;;;;;;;5031763;28;20068;-72
2023/07/01 08:07:01;;;;;;;11.95;5.80;;;;;;;;;;5031871;28;20083;-74
2023/07/01 08:09:27;;;;;;;14.82;5.65;;;;;;;;;;5031687;28;20035;-72
2023/07/01 08:11:53;;;;;;;22.55;9.35;;;;;;;;;;5030905;28;20017;-73
2023/07/01 08:14:20;;;;;;;17.90;8.63;;;;;;;;;;5032446;28;20022;-73
2023/07/01 08:16:46;;;;;;;41.17;19.05;;;;;;;;;;5032856;28;20100;-73
2023/07/01 08:19:12;;;;;;;14.27;5.85;;;;;;;;;;5031982;28;20108;-72
2023/07/01 08:21:38;;;;;;;20.85;8.50;;;;;;;;;;5032205;28;20105;-73
2023/07/01 08:24:05;;;;;;;13.23;6.78;;;;;;;;;;5033343;28;20014;-72
2023/07/01 08:26:31;;;;;;;34.70;11.88;;;;;;;;;;5033120;28;20091;-74
2023/07/01 08:28:57;;;;;;;20.67;7.00;;;;;;;;;;5032532;28;20476;-74
2023/07/01 08:31:23;;;;;;;47.63;17.52;;;;;;;;;;5032857;28;20034;-74
2023/07/01 08:33:49;;;;;;;20.92;8.07;;;;;;;;;;5032727;28;20030;-73
2023/07/01 08:36:15;;;;;;;15.75;6.65;;;;;;;;;;5032025;28;20026;-74
2023/07/01 08:38:41;;;;;;;14.00;6.10;;;;;;;;;;5033640;28;20118;-74
2023/07/01 08:41:09;;;;;;;15.27;6.25;;;;;;;;;;5033073;28;20479;-74
2023/07/01 08:43:37;;;;;;;12.88;6.15;;;;;;;;;;5032397;28;20032;-74
2023/07/01 08:46:04;;;;;;;25.52;9.77;;;;;;;;;;5030962;28;20442;-72
2023/07/01 08:48:34;;;;;;;12.73;6.35;;;;;;;;;;5032655;28;20025;-75
2023/07/01 08:51:00;;;;;;;14.98;7.20;;;;;;;;;;5032587;28;20034;-74
2023/07/01 08:53:26;;;;;;;13.07;7.03;;;;;;;;;;5032366;28;20211;-73
2023/07/01 08:55:54;;;;;;;30.13;8.65;;;;;;;;;;5033087;28;20033;-74
2023/07/01 08:58:20;;;;;;;14.95;6.88;;;;;;;;;;5031376;28;20049;-74
2023/07/01 09:00:46;;;;;;;12.50;6.53;;;;;;;;;;5031827;28;20034;-74
2023/07/01 09:03:12;;;;;;;13.63;6.85;;;;;;;;;;5031503;28;20018;-74
2023/07/01 09:05:38;;;;;;;22.08;8.32;;;;;;;;;;5033219;28;20018;-76
2023/07/01 09:08:04;;;;;;;12.55;7.50;;;;;;;;;;5033184;28;20022;-76
2023/07/01 09:10:30;;;;;;;12.20;7.45;;;;;;;;;;5028549;28;20033;-73
2023/07/01 09:13:08;;;;;;;15.07;7.95;;;;;;;;;;5031356;28;20410;-72
2023/07/01 09:15:42;;;;;;;16.05;8.30;;;;;;;;;;5031030;28;20040;-72
2023/07/01 09:18:19;;;;;;;17.08;8.40;;;;;;;;;;5031243;28;20031;-73
2023/07/01 09:20:46;;;;;;;12.68;7.00;;;;;;;;;;5029979;28;20397;-72
2023/07/01 09:23:12;;;;;;;15.55;7.57;;;;;;;;;;5030774;28;20056;-73
2023/07/01 09:25:37;;;;;;;15.75;7.30;;;;;;;;;;5031344;28;20065;-73
2023/07/01 09:28:04;;;;;;;13.57;7.70;;;;;;;;;;5039082;28;20037;-74
2023/07/01 09:30:30;;;;;;;17.58;6.97;;;;;;;;;;5040617;28;20026;-73
2023/07/01 09:33:12;;;;;;;13.35;7.22;;;;;;;;;;5036751;28;20029;-74
2023/07/01 09:35:42;;;;;;;17.40;7.10;;;;;;;;;;5035660;28;20039;-72
2023/07/01 09:38:08;;;;;;;19.90;7.10;;;;;;;;;;5036787;28;20021;-74
2023/07/01 09:40:34;;;;;;;11.85;6.93;;;;;;;;;;5037155;28;20033;-74
2023/07/01 09:43:00;;;;;;;11.57;7.20;;;;;;;;;;5034258;28;20049;-73
2023/07/01 09:45:26;;;;;;;12.98;7.40;;;;;;;;;;5035861;28;20072;-73
2023/07/01 09:47:52;;;;;;;16.92;9.32;;;;;;;;;;5039439;28;20029;-74
2023/07/01 09:50:29;;;;;;;13.82;8.38;;;;;;;;;;5036646;28;20029;-72
2023/07/01 09:52:56;;;;;;;19.98;10.63;;;;;;;;;;5034357;28;20090;-73
2023/07/01 09:55:23;;;;;;;34.10;18.10;;;;;;;;;;5034529;28;20379;-74
2023/07/01 09:57:49;;;;;;;14.35;8.88;;;;;;;;;;5034531;28;20025;-73
2023/07/01 10:00:16;;;;;;;13.50;7.22;;;;;;;;;;5034699;28;20021;-73
2023/07/01 10:02:48;;;;;;;13.32;7.80;;;;;;;;;;5034404;28;20442;-73
2023/07/01 10:05:14;;;;;;;17.00;9.68;;;;;;;;;;5034643;28;20356;-73
2023/07/01 10:07:45;;;;;;;12.85;7.82;;;;;;;;;;5034182;28;20030;-73
2023/07/01 10:10:13;;;;;;;13.43;8.27;;;;;;;;;;5034423;28;20040;-72
2023/07/01 10:12:40;;;;;;;14.88;7.82;;;;;;;;;;5033711;28;20025;-73
2023/07/01 10:15:06;;;;;;;11.57;7.43;;;;;;;;;;5034084;28;20033;-73
2023/07/01 10:17:45;;;;;;;17.20;8.00;;;;;;;;;;5033834;28;20033;-74
2023/07/01 10:20:32;;;;;;;11.07;7.75;;;;;;;;;;5034313;28;20028;-72
2023/07/01 10:22:58;;;;;;;11.98;7.72;;;;;;;;;;5034088;28;20021;-72
2023/07/01 10:25:31;;;;;;;13.30;7.93;;;;;;;;;;5034523;28;20471;-72
2023/07/01 10:28:09;;;;;;;13.40;7.78;;;;;;;;;;5034018;28;20455;-75
2023/07/01 10:30:42;;;;;;;17.30;8.18;;;;;;;;;;5033551;28;20037;-73
2023/07/01 10:33:26;;;;;;;11.00;7.55;;;;;;;;;;5034057;28;20075;-73
2023/07/01 10:36:08;;;;;;;17.85;8.60;;;;;;;;;;5034413;28;20037;-73
2023/07/01 10:38:35;;;;;;;16.42;9.10;;;;;;;;;;5033085;28;20032;-73
2023/07/01 10:41:01;;;;;;;14.07;9.55;;;;;;;;;;5033633;28;20030;-72
2023/07/01 10:43:32;;;;;;;16.13;8.57;;;;;;;;;;5033416;28;20025;-72
2023/07/01 10:46:04;;;;;;;12.57;8.60;;;;;;;;;;5034578;28;20025;-72
2023/07/01 10:48:30;;;;;;;14.35;9.23;;;;;;;;;;5034041;28;20029;-73
2023/07/01 10:51:06;;;;;;;16.67;9.63;;;;;;;;;;5033385;28;20029;-72
2023/07/01 10:53:43;;;;;;;18.30;9.38;;;;;;;;;;5033501;28;20406;-73
2023/07/01 10:56:11;;;;;;;12.32;8.02;;;;;;;;;;5033559;28;20057;-73
2023/07/01 10:58:37;;;;;;;11.40;8.25;;;;;;;;;;5033359;28;20037;-73
2023/07/01 11:01:03;;;;;;;14.48;8.05;;;;;;;;;;5033263;28;20382;-73
2023/07/01 11:03:36;;;;;;;13.70;9.68;;;;;;;;;;5033063;28;20028;-72
2023/07/01 11:06:03;;;;;;;14.70;8.43;;;;;;;;;;5033469;28;20517;-73
2023/07/01 11:08:29;;;;;;;13.95;9.40;;;;;;;;;;5034186;28;20036;-74
2023/07/01 11:10:55;;;;;;;13.70;8.88;;;;;;;;;;5034481;28;20032;-72
2023/07/01 11:13:22;;;;;;;13.18;8.55;;;;;;;;;;5033088;28;20403;-73
2023/07/01 11:16:01;;;;;;;11.93;8.23;;;;;;;;;;5036234;28;20034;-73
2023/07/01 11:19:00;;;;;;;12.02;8.20;;;;;;;;;;5035386;28;20025;-74
2023/07/01 11:21:27;;;;;;;12.38;8.32;;;;;;;;;;5020414;28;20033;-72
2023/07/01 11:23:53;;;;;;;12.20;8.88;;;;;;;;;;5032687;28;20494;-72
2023/07/01 11:26:26;;;;;;;14.07;8.45;;;;;;;;;;5032823;28;20025;-73
2023/07/01 11:28:52;;;;;;;13.02;8.30;;;;;;;;;;5034063;28;20106;-73
2023/07/01 11:31:22;;;;;;;12.27;8.30;;;;;;;;;;5032725;28;20022;-73
2023/07/01 11:33:55;;;;;;;11.05;8.32;;;;;;;;;;5033002;28;20105;-74
2023/07/01 11:36:34;;;;;;;10.45;8.13;;;;;;;;;;5036073;28;20033;-73
2023/07/01 11:39:05;;;;;;;14.88;8.85;;;;;;;;;;5038135;28;20079;-74
2023/07/01 11:41:32;;;;;;;14.38;9.48;;;;;;;;;;5035785;28;20060;-72
2023/07/01 11:43:58;;;;;;;15.45;9.15;;;;;;;;;;5032555;28;20479;-72
2023/07/01 11:46:35;;;;;;;11.80;8.52;;;;;;;;;;5032619;28;20407;-73
2023/07/01 11:49:14;;;;;;;12.82;8.75;;;;;;;;;;5032375;28;20025;-73
2023/07/01 11:51:41;;;;;;;13.18;8.63;;;;;;;;;;5031918;28;20040;-73
2023/07/01 11:54:07;;;;;;;11.98;9.23;;;;;;;;;;5032068;28;20478;-74
2023/07/01 11:56:33;;;;;;;14.98;9.43;;;;;;;;;;5032495;28;20084;-72
2023/07/01 11:58:59;;;;;;;16.05;11.90;;;;;;;;;;5032361;28;20033;-73
2023/07/01 12:01:26;;;;;;;19.20;9.13;;;;;;;;;;5032481;28;20025;-72
2023/07/01 12:03:53;;;;;;;12.65;8.40;;;;;;;;;;5031950;28;20430;-74
2023/07/01 12:06:20;;;;;;;14.02;8.25;;;;;;;;;;5029817;28;20625;-73
2023/07/01 12:09:03;;;;;;;10.35;8.00;;;;;;;;;;5031170;28;20052;-74
2023/07/01 12:11:29;;;;;;;10.65;7.85;;;;;;;;;;5031434;28;20056;-73
2023/07/01 12:13:56;;;;;;;10.45;8.00;;;;;;;;;;5031168;28;20021;-73
2023/07/01 12:16:22;;;;;;;10.07;7.60;;;;;;;;;;5031809;28;20395;-73
2023/07/01 12:18:48;;;;;;;14.05;7.00;;;;;;;;;;5032334;28;20029;-74
2023/07/01 12:21:14;;;;;;;15.63;7.25;;;;;;;;;;5032615;28;20075;-73
2023/07/01 12:23:44;;;;;;;17.15;11.88;;;;;;;;;;5032203;28;20021;-74
2023/07/01 12:26:10;;;;;;;13.25;7.40;;;;;;;;;;5032583;28;20091;-74
2023/07/01 12:28:37;;;;;;;16.23;6.95;;;;;;;;;;5032864;28;20091;-73
2023/07/01 12:31:03;;;;;;;11.85;6.82;;;;;;;;;;5035994;28;20037;-74
2023/07/01 12:33:29;;;;;;;11.02;6.85;;;;;;;;;;5032944;28;20030;-74
2023/07/01 12:35:57;;;;;;;8.80;6.43;;;;;;;;;;5032524;28;20029;-73
2023/07/01 12:38:23;;;;;;;12.30;6.40;;;;;;;;;;5031721;28;20021;-73
2023/07/01 12:40:49;;;;;;;12.82;6.75;;;;;;;;;;5031212;28;20365;-73
2023/07/01 12:43:15;;;;;;;11.90;5.10;;;;;;;;;;5030905;28;20056;-72
2023/07/01 12:45:41;;;;;;;5.80;5.10;;;;;;;;;;5032818;28;20032;-73
2023/07/01 12:48:07;;;;;;;7.68;5.35;;;;;;;;;;5032639;28;20038;-75
2023/07/01 12:50:33;;;;;;;6.35;5.03;;;;;;;;;;5032331;28;20044;-74
2023/07/01 12:52:59;;;;;;;8.57;6.50;;;;;;;;;;5031426;28;20033;-74
2023/07/01 12:55:25;;;;;;;7.65;4.93;;;;;;;;;;5031956;28;20471;-73
2023/07/01 12:57:51;;;;;;;6.43;4.38;;;;;;;;;;5031279;28;20025;-73
2023/07/01 13:00:17;;;;;;;7.00;4.32;;;;;;;;;;5031448;28;20356;-73
2023/07/01 13:02:45;;;;;;;6.50;4.30;;;;;;;;;;5034011;28;20041;-74
2023/07/01 13:05:14;;;;;;;6.30;4.68;;;;;;;;;;5037158;28;20361;-73
2023/07/01 13:07:40;;;;;;;6.53;4.70;;;;;;;;;;5035595;28;20037;-72
2023/07/01 13:10:07;;;;;;;5.57;4.20;;;;;;;;;;5047393;28;20120;-73
2023/07/01 13:12:36;;;;;;;8.48;4.50;;;;;;;;;;5039266;28;20029;-74
2023/07/01 13:15:02;;;;;;;12.10;4.82;;;;;;;;;;5039202;28;20108;-76
2023/07/01 13:17:37;;;;;;;7.38;4.30;;;;;;;;;;5037368;28;20034;-79
2023/07/01 13:20:04;;;;;;;7.07;4.38;;;;;;;;;;5035885;28;20021;-72
2023/07/01 13:22:30;;;;;;;6.28;4.25;;;;;;;;;;5035159;28;20030;-73
2023/07/01 13:24:56;;;;;;;5.25;4.47;;;;;;;;;;5035337;28;20083;-76
2023/07/01 13:27:24;;;;;;;7.15;4.32;;;;;;;;;;5035329;28;20475;-75
2023/07/01 13:29:50;;;;;;;7.63;4.38;;;;;;;;;;5035125;28;20025;-75
2023/07/01 13:32:17;;;;;;;6.18;3.97;;;;;;;;;;5035737;28;20051;-77
2023/07/01 13:34:43;;;;;;;10.50;7.07;;;;;;;;;;5036877;28;20025;-76
2023/07/01 13:37:10;;;;;;;6.47;3.95;;;;;;;;;;5035549;28;20435;-76
2023/07/01 13:39:39;;;;;;;6.45;4.38;;;;;;;;;;5035681;28;20025;-74
2023/07/01 13:42:06;;;;;;;6.35;3.78;;;;;;;;;;5035482;28;20037;-75
2023/07/01 13:44:37;;;;;;;8.32;4.32;;;;;;;;;;5038130;28;20022;-76
2023/07/01 13:47:04;;;;;;;4.70;3.50;;;;;;;;;;5041890;28;20471;-73
2023/07/01 13:49:30;;;;;;;4.32;3.10;;;;;;;;;;5035708;28;20025;-76
2023/07/01 13:51:56;;;;;;;7.63;3.53;;;;;;;;;;5036662;28;20025;-78
2023/07/01 13:54:25;;;;;;;5.65;3.78;;;;;;;;;;5039789;28;20084;-77
2023/07/01 13:56:56;;;;;;;3.92;2.90;;;;;;;;;;5038610;28;20029;-77
2023/07/01 13:59:22;;;;;;;5.40;3.20;;;;;;;;;;5038258;28;20074;-76
2023/07/01 14:01:55;;;;;;;4.43;3.20;;;;;;;;;;5035488;28;20029;-73
2023/07/01 14:04:21;;;;;;;8.93;3.30;;;;;;;;;;5035136;28;20519;-73
2023/07/01 14:06:47;;;;;;;3.80;3.00;;;;;;;;;;5035185;28;20030;-73
2023/07/01 14:09:21;;;;;;;5.00;3.50;;;;;;;;;;5034523;28;20040;-78
2023/07/01 14:11:47;;;;;;;6.15;3.90;;;;;;;;;;5034072;28;20037;-75
2023/07/01 14:14:19;;;;;;;4.55;3.42;;;;;;;;;;5034261;28;20021;-75
2023/07/01 14:16:46;;;;;;;7.65;3.97;;;;;;;;;;5035469;28;20065;-76
2023/07/01 14:19:13;;;;;;;5.05;4.03;;;;;;;;;;5034159;28;20495;-76
2023/07/01 14:21:39;;;;;;;6.70;4.20;;;;;;;;;;5034247;28;20537;-76
2023/07/01 14:24:10;;;;;;;7.35;4.45;;;;;;;;;;5034333;28;20026;-76
2023/07/01 14:26:39;;;;;;;5.97;4.50;;;;;;;;;;5034991;28;20017;-78
2023/07/01 14:29:05;;;;;;;6.95;4.80;;;;;;;;;;5034264;28;20028;-75
2023/07/01 14:31:32;;;;;;;9.30;5.30;;;;;;;;;;5032779;28;20024;-76
2023/07/01 14:34:01;;;;;;;6.97;5.03;;;;;;;;;;5033667;28;20025;-75
2023/07/01 14:36:31;;;;;;;7.95;5.88;;;;;;;;;;5033701;28;20029;-73